createdAt,value
2018-02-05T00:01:38.951Z,29.37
2018-02-05T00:04:06.477Z,24.92
2018-02-05T00:06:33.977Z,23.95
2018-02-05T00:09:01.475Z,21.00
2018-02-05T00:11:29.004Z,25.17
2018-02-05T00:13:56.643Z,25.23
2018-02-05T00:16:24.182Z,22.40
2018-02-05T00:18:51.910Z,22.75
2018-02-05T00:21:19.599Z,25.95
2018-02-05T00:23:47.130Z,22.95
2018-02-05T00:26:14.697Z,28.90
2018-02-05T00:28:42.177Z,26.08
2018-02-05T00:31:09.678Z,28.27
2018-02-05T00:33:37.135Z,26.83
2018-02-05T00:36:04.593Z,26.25
2018-02-05T00:38:32.059Z,25.60
2018-02-05T00:40:59.546Z,32.88
2018-02-05T00:43:27.028Z,30.50
2018-02-05T00:45:54.522Z,27.27
2018-02-05T00:48:22.015Z,26.73
2018-02-05T00:50:49.570Z,28.12
2018-02-05T00:53:17.050Z,23.27
2018-02-05T00:55:44.515Z,29.42
2018-02-05T00:58:12.000Z,21.73
2018-02-05T01:00:39.462Z,28.85
2018-02-05T01:03:06.939Z,29.85
2018-02-05T01:05:35.138Z,30.92
2018-02-05T01:08:02.623Z,26.42
2018-02-05T01:10:30.472Z,29.63
2018-02-05T01:12:57.965Z,28.42
2018-02-05T01:15:25.434Z,26.55
2018-02-05T01:17:53.008Z,26.95
2018-02-05T01:20:20.500Z,25.88
2018-02-05T01:22:48.111Z,25.20
2018-02-05T01:25:15.617Z,25.98
2018-02-05T01:27:43.126Z,32.30
2018-02-05T01:30:11.183Z,26.08
2018-02-05T01:32:38.659Z,29.25
2018-02-05T01:35:06.118Z,30.08
2018-02-05T01:37:33.654Z,29.05
2018-02-05T01:40:01.114Z,24.30
2018-02-05T01:42:28.587Z,29.60
2018-02-05T01:44:56.098Z,30.45
2018-02-05T01:47:23.640Z,35.42
2018-02-05T01:49:51.128Z,28.33
2018-02-05T01:52:18.590Z,29.25
2018-02-05T01:54:46.055Z,32.53
2018-02-05T01:57:13.614Z,33.90
2018-02-05T01:59:41.080Z,27.83
2018-02-05T02:02:08.573Z,32.30
2018-02-05T02:04:36.051Z,29.45
2018-02-05T02:07:03.511Z,28.10
2018-02-05T02:09:30.974Z,32.15
2018-02-05T02:11:58.435Z,28.50
2018-02-05T02:14:25.895Z,33.72
2018-02-05T02:16:53.363Z,29.52
2018-02-05T02:19:20.849Z,28.15
2018-02-05T02:21:48.335Z,30.83
2018-02-05T02:24:15.817Z,30.33
2018-02-05T02:26:43.293Z,34.30
2018-02-05T02:29:10.766Z,28.85
2018-02-05T02:31:38.238Z,29.60
2018-02-05T02:34:05.723Z,30.90
2018-02-05T02:36:33.208Z,31.42
2018-02-05T02:39:00.684Z,29.00
2018-02-05T02:41:28.169Z,33.30
2018-02-05T02:43:55.635Z,33.35
2018-02-05T02:46:23.099Z,33.15
2018-02-05T02:48:50.570Z,32.13
2018-02-05T02:51:18.046Z,27.90
2018-02-05T02:53:45.518Z,30.92
2018-02-05T02:56:13.013Z,32.22
2018-02-05T02:58:40.471Z,29.37
2018-02-05T03:01:07.975Z,26.92
2018-02-05T03:03:35.432Z,26.95
2018-02-05T03:06:02.913Z,32.22
2018-02-05T03:08:30.379Z,30.30
2018-02-05T03:10:57.843Z,33.42
2018-02-05T03:13:25.373Z,32.95
2018-02-05T03:15:52.846Z,32.92
2018-02-05T03:18:20.299Z,32.00
2018-02-05T03:20:47.823Z,31.08
2018-02-05T03:23:15.291Z,31.87
2018-02-05T03:25:42.783Z,36.22
2018-02-05T03:28:10.253Z,31.90
2018-02-05T03:30:37.711Z,27.00
2018-02-05T03:33:05.194Z,33.67
2018-02-05T03:35:32.651Z,33.00
2018-02-05T03:38:00.103Z,29.98
2018-02-05T03:40:27.625Z,36.25
2018-02-05T03:42:55.075Z,31.02
2018-02-05T03:45:22.553Z,30.52
2018-02-05T03:47:50.012Z,27.58
2018-02-05T03:50:17.470Z,30.77
2018-02-05T03:52:44.955Z,28.05
2018-02-05T03:55:12.406Z,30.55
2018-02-05T03:57:39.861Z,28.90
2018-02-05T04:00:07.325Z,33.20
2018-02-05T04:02:34.779Z,30.40
2018-02-05T04:05:02.233Z,29.45
2018-02-05T04:07:29.698Z,31.00
2018-02-05T04:09:57.191Z,28.38
2018-02-05T04:12:24.641Z,29.42
2018-02-05T04:14:52.139Z,27.83
2018-02-05T04:17:20.388Z,36.72
2018-02-05T04:19:47.846Z,31.98
2018-02-05T04:22:15.330Z,33.40
2018-02-05T04:24:42.800Z,30.58
2018-02-05T04:27:10.246Z,28.85
2018-02-05T04:29:37.746Z,35.67
2018-02-05T04:32:05.208Z,33.05
2018-02-05T04:34:32.665Z,32.60
2018-02-05T04:37:00.147Z,30.40
2018-02-05T04:39:27.606Z,30.80
2018-02-05T04:41:55.058Z,31.73
2018-02-05T04:44:22.556Z,32.35
2018-02-05T04:46:50.012Z,35.78
2018-02-05T04:49:17.470Z,42.62
2018-02-05T04:51:44.934Z,31.90
2018-02-05T04:54:12.391Z,33.03
2018-02-05T04:56:39.852Z,33.60
2018-02-05T04:59:07.321Z,31.10
2018-02-05T05:01:34.828Z,31.10
2018-02-05T05:04:02.327Z,35.72
2018-02-05T05:06:29.779Z,32.80
2018-02-05T05:08:57.256Z,34.22
2018-02-05T05:11:24.714Z,37.17
2018-02-05T05:13:52.198Z,34.95
2018-02-05T05:16:19.662Z,39.72
2018-02-05T05:18:47.138Z,34.08
2018-02-05T05:21:14.608Z,34.17
2018-02-05T05:23:42.160Z,35.45
2018-02-05T05:26:09.616Z,34.13
2018-02-05T05:28:37.080Z,31.08
2018-02-05T05:31:04.595Z,38.40
2018-02-05T05:33:32.063Z,43.05
2018-02-05T05:35:59.523Z,33.90
2018-02-05T05:38:27.030Z,43.00
2018-02-05T05:40:54.494Z,37.60
2018-02-05T05:43:21.967Z,32.70
2018-02-05T05:45:49.426Z,37.28
2018-02-05T05:48:16.883Z,38.42
2018-02-05T05:50:44.354Z,38.20
2018-02-05T05:53:11.819Z,35.75
2018-02-05T05:55:39.310Z,44.22
2018-02-05T05:58:06.788Z,37.20
2018-02-05T06:00:34.259Z,46.30
2018-02-05T06:03:01.712Z,37.03
2018-02-05T06:05:29.192Z,32.83
2018-02-05T06:07:56.644Z,36.42
2018-02-05T06:10:24.095Z,35.05
2018-02-05T06:12:51.657Z,37.20
2018-02-05T06:15:19.112Z,35.08
2018-02-05T06:17:46.570Z,44.42
2018-02-05T06:20:14.038Z,43.20
2018-02-05T06:22:41.595Z,42.45
2018-02-05T06:25:09.104Z,62.00
2018-02-05T06:27:36.571Z,48.85
2018-02-05T06:30:04.058Z,51.05
2018-02-05T06:32:31.519Z,52.17
2018-02-05T06:34:58.989Z,53.40
2018-02-05T06:37:26.455Z,41.78
2018-02-05T06:39:53.926Z,37.80
2018-02-05T06:42:21.418Z,45.40
2018-02-05T06:44:48.874Z,44.00
2018-02-05T06:47:16.350Z,50.58
2018-02-05T06:49:43.825Z,72.53
2018-02-05T06:52:22.903Z,47.90
2018-02-05T06:55:02.095Z,40.65
2018-02-05T06:57:29.589Z,32.30
2018-02-05T06:59:57.056Z,32.20
2018-02-05T07:02:24.511Z,35.88
2018-02-05T07:04:52.010Z,32.33
2018-02-05T07:07:19.514Z,33.78
2018-02-05T07:09:46.979Z,35.75
2018-02-05T07:12:14.465Z,33.33
2018-02-05T07:14:41.935Z,34.47
2018-02-05T07:17:09.404Z,32.40
2018-02-05T07:19:36.913Z,37.58
2018-02-05T07:22:04.359Z,36.55
2018-02-05T07:24:32.010Z,40.45
2018-02-05T07:26:59.482Z,37.53
2018-02-05T07:29:26.939Z,38.13
2018-02-05T07:31:54.403Z,40.17
2018-02-05T07:34:21.896Z,43.30
2018-02-05T07:36:49.353Z,38.35
2018-02-05T07:39:16.811Z,37.10
2018-02-05T07:41:44.284Z,37.55
2018-02-05T07:44:11.754Z,35.13
2018-02-05T07:46:39.218Z,42.47
2018-02-05T07:49:06.699Z,36.03
2018-02-05T07:51:34.183Z,43.72
2018-02-05T07:54:01.789Z,39.63
2018-02-05T07:56:29.254Z,43.00
2018-02-05T07:58:56.715Z,43.95
2018-02-05T08:01:24.186Z,35.28
2018-02-05T08:03:51.664Z,40.00
2018-02-05T08:06:19.136Z,39.63
2018-02-05T08:08:46.650Z,37.10
2018-02-05T08:11:14.107Z,36.58
2018-02-05T08:13:41.562Z,37.05
2018-02-05T08:16:09.035Z,33.83
2018-02-05T08:18:36.492Z,37.50
2018-02-05T08:21:03.967Z,32.45
2018-02-05T08:23:31.426Z,40.25
2018-02-05T08:25:59.094Z,36.63
2018-02-05T08:28:26.599Z,34.65
2018-02-05T08:30:54.056Z,33.33
2018-02-05T08:33:21.555Z,31.23
2018-02-05T08:35:49.017Z,35.83
2018-02-05T08:38:16.502Z,31.55
2018-02-05T08:40:43.998Z,35.33
2018-02-05T08:43:11.481Z,31.08
2018-02-05T08:45:38.946Z,31.00
2018-02-05T08:48:06.436Z,28.38
2018-02-05T08:50:33.906Z,35.00
2018-02-05T08:53:01.387Z,30.75
2018-02-05T08:55:28.860Z,34.70
2018-02-05T08:57:56.320Z,33.25
2018-02-05T09:00:23.794Z,32.30
2018-02-05T09:02:51.443Z,34.00
2018-02-05T09:05:18.898Z,32.05
2018-02-05T09:07:46.368Z,36.10
2018-02-05T09:10:13.824Z,37.03
2018-02-05T09:12:41.292Z,36.07
2018-02-05T09:15:08.775Z,32.80
2018-02-05T09:17:36.246Z,34.93
2018-02-05T09:20:03.758Z,31.77
2018-02-05T09:22:31.220Z,30.12
2018-02-05T09:24:58.683Z,33.10
2018-02-05T09:27:26.146Z,33.90
2018-02-05T09:29:53.611Z,33.20
2018-02-05T09:32:21.089Z,36.60
2018-02-05T09:34:48.560Z,37.60
2018-02-05T09:37:16.071Z,34.50
2018-02-05T09:39:43.549Z,42.00
2018-02-05T09:42:11.029Z,43.80
2018-02-05T09:44:38.498Z,40.27
2018-02-05T09:47:05.988Z,41.33
2018-02-05T09:49:33.470Z,43.20
2018-02-05T09:52:00.944Z,40.77
2018-02-05T09:54:28.426Z,35.30
2018-02-05T09:56:55.929Z,41.27
2018-02-05T09:59:23.396Z,34.83
2018-02-05T10:01:50.854Z,33.77
2018-02-05T10:04:18.310Z,39.73
2018-02-05T10:06:45.799Z,44.70
2018-02-05T10:09:13.315Z,38.83
2018-02-05T10:11:40.765Z,75.77
2018-02-05T10:14:09.190Z,43.20
2018-02-05T10:16:36.670Z,39.10
2018-02-05T10:19:04.149Z,42.57
2018-02-05T10:21:31.840Z,39.03
2018-02-05T10:23:59.301Z,38.43
2018-02-05T10:26:26.778Z,40.07
2018-02-05T10:28:54.239Z,43.20
2018-02-05T10:31:21.758Z,40.27
2018-02-05T10:33:49.252Z,39.07
2018-02-05T10:36:16.747Z,39.20
2018-02-05T10:38:44.190Z,34.40
2018-02-05T10:41:11.697Z,37.00
2018-02-05T10:43:39.188Z,42.33
2018-02-05T10:46:06.720Z,39.03
2018-02-05T10:48:34.206Z,38.07
2018-02-05T10:51:01.744Z,39.97
2018-02-05T10:53:29.228Z,30.43
2018-02-05T10:55:56.688Z,29.67
2018-02-05T10:58:24.167Z,31.43
2018-02-05T11:00:51.660Z,31.37
2018-02-05T11:03:19.130Z,29.20
2018-02-05T11:05:46.616Z,36.23
2018-02-05T11:08:14.092Z,37.57
2018-02-05T11:10:41.573Z,35.77
2018-02-05T11:13:09.042Z,27.20
2018-02-05T11:15:36.574Z,36.87
2018-02-05T11:18:04.099Z,33.17
2018-02-05T11:20:31.613Z,38.37
2018-02-05T11:22:59.106Z,43.90
2018-02-05T11:25:26.622Z,34.73
2018-02-05T11:27:54.133Z,33.63
2018-02-05T11:30:21.620Z,30.63
2018-02-05T11:32:49.104Z,32.83
2018-02-05T11:35:16.633Z,31.23
2018-02-05T11:37:45.276Z,37.37
2018-02-05T11:40:12.794Z,37.73
2018-02-05T11:42:40.325Z,29.97
2018-02-05T11:45:07.812Z,31.20
2018-02-05T11:47:35.318Z,34.13
2018-02-05T11:50:02.779Z,28.33
2018-02-05T11:52:30.278Z,43.50
2018-02-05T11:54:57.750Z,34.33
2018-02-05T11:57:25.242Z,30.40
2018-02-05T11:59:52.805Z,30.33
2018-02-05T12:02:20.272Z,37.40
2018-02-05T12:04:47.771Z,27.07
2018-02-05T12:07:15.258Z,33.03
2018-02-05T12:09:42.739Z,32.83
2018-02-05T12:12:10.248Z,31.33
2018-02-05T12:14:37.765Z,29.03
2018-02-05T12:17:05.363Z,27.60
2018-02-05T12:19:32.837Z,36.33
2018-02-05T12:22:00.345Z,34.57
2018-02-05T12:24:27.959Z,30.23
2018-02-05T12:26:55.461Z,27.93
2018-02-05T12:29:23.180Z,31.33
2018-02-05T12:31:50.651Z,30.57
2018-02-05T12:34:18.148Z,30.13
2018-02-05T12:36:45.675Z,41.33
2018-02-05T12:39:13.175Z,35.00
2018-02-05T12:41:40.642Z,27.43
2018-02-05T12:44:08.154Z,29.63
2018-02-05T12:46:35.669Z,29.97
2018-02-05T12:49:03.151Z,30.73
2018-02-05T12:51:30.637Z,27.97
2018-02-05T12:53:58.152Z,29.10
2018-02-05T12:56:25.792Z,29.40
2018-02-05T12:58:53.302Z,30.33
2018-02-05T13:04:27.895Z,27.10
2018-02-05T13:06:55.379Z,28.40
2018-02-05T13:09:23.300Z,27.47
2018-02-05T13:11:50.775Z,37.13
2018-02-05T13:14:18.292Z,26.67
2018-02-05T13:16:45.763Z,33.33
2018-02-05T13:19:13.227Z,30.57
2018-02-05T13:21:40.765Z,28.93
2018-02-05T13:24:08.262Z,36.00
2018-02-05T13:26:35.747Z,30.73
2018-02-05T13:29:03.353Z,29.53
2018-02-05T13:31:30.841Z,28.60
2018-02-05T13:33:58.319Z,32.80
2018-02-05T13:36:25.837Z,27.70
2018-02-05T13:38:53.517Z,27.60
2018-02-05T13:41:21.005Z,28.73
2018-02-05T13:43:48.507Z,29.97
2018-02-05T13:46:16.066Z,25.20
2018-02-05T13:48:43.546Z,29.60
2018-02-05T13:51:11.025Z,37.20
2018-02-05T13:53:39.151Z,34.70
2018-02-05T13:56:06.685Z,30.43
2018-02-05T13:58:34.159Z,29.37
2018-02-05T14:01:01.654Z,30.93
2018-02-05T14:03:29.160Z,29.00
2018-02-05T14:05:56.640Z,27.90
2018-02-05T14:08:24.120Z,30.23
2018-02-05T14:10:51.680Z,29.23
2018-02-05T14:13:19.140Z,33.20
2018-02-05T14:15:46.623Z,27.90
2018-02-05T14:18:14.122Z,33.07
2018-02-05T14:20:41.618Z,27.17
2018-02-05T14:23:09.107Z,27.53
2018-02-05T14:25:36.583Z,28.17
2018-02-05T14:28:04.068Z,30.70
2018-02-05T14:30:31.556Z,29.37
2018-02-05T14:32:59.044Z,26.27
2018-02-05T14:35:26.620Z,30.70
2018-02-05T14:37:54.124Z,33.17
2018-02-05T14:40:21.632Z,31.03
2018-02-05T14:42:49.115Z,27.37
2018-02-05T14:45:16.590Z,29.47
2018-02-05T14:47:44.058Z,27.83
2018-02-05T14:50:12.461Z,28.30
2018-02-05T14:52:40.100Z,28.63
2018-02-05T14:55:07.584Z,29.07
2018-02-05T14:57:40.710Z,30.53
2018-02-05T15:00:08.188Z,26.93
2018-02-05T15:02:35.693Z,25.00
2018-02-05T15:05:03.180Z,28.70
2018-02-05T15:07:30.647Z,29.33
2018-02-05T15:09:58.133Z,24.10
2018-02-05T15:12:25.595Z,25.50
2018-02-05T15:14:53.086Z,23.43
2018-02-05T15:17:20.543Z,32.50
2018-02-05T15:19:48.034Z,27.07
2018-02-05T15:22:15.522Z,25.83
2018-02-05T15:24:42.994Z,25.93
2018-02-05T15:27:10.513Z,21.33
2018-02-05T15:29:38.020Z,27.27
2018-02-05T15:32:06.775Z,23.67
2018-02-05T15:34:34.240Z,24.50
2018-02-05T15:37:01.815Z,26.33
2018-02-05T15:39:29.317Z,25.13
2018-02-05T15:41:56.779Z,23.40
2018-02-05T15:44:24.265Z,24.73
2018-02-05T15:46:51.798Z,25.07
2018-02-05T15:49:19.264Z,21.20
2018-02-05T15:51:46.742Z,26.23
2018-02-05T15:54:14.248Z,22.57
2018-02-05T15:56:41.706Z,27.30
2018-02-05T15:59:09.166Z,19.93
2018-02-05T16:01:36.629Z,23.13
2018-02-05T16:04:04.084Z,21.07
2018-02-05T16:06:31.597Z,26.03
2018-02-05T16:08:59.261Z,25.13
2018-02-05T16:11:26.727Z,23.80
2018-02-05T16:13:54.200Z,22.70
2018-02-05T16:16:21.683Z,22.90
2018-02-05T16:18:49.262Z,32.10
2018-02-05T16:21:16.738Z,26.47
2018-02-05T16:23:44.199Z,24.13
2018-02-05T16:26:11.686Z,27.33
2018-02-05T16:28:39.142Z,34.77
2018-02-05T16:31:06.639Z,22.20
2018-02-05T16:33:34.141Z,31.17
2018-02-05T16:36:01.596Z,31.20
2018-02-05T16:38:29.090Z,25.60
2018-02-05T16:40:56.583Z,28.53
2018-02-05T16:43:24.063Z,24.83
2018-02-05T16:45:51.633Z,25.90
2018-02-05T16:48:19.124Z,29.25
2018-02-05T16:50:46.592Z,26.80
2018-02-05T16:53:14.108Z,28.10
2018-02-05T16:55:41.591Z,26.10
2018-02-05T16:58:09.064Z,31.00
2018-02-05T17:00:36.540Z,30.50
2018-02-05T17:03:04.019Z,28.63
2018-02-05T17:05:31.487Z,32.87
2018-02-05T17:07:58.968Z,27.40
2018-02-05T17:10:26.424Z,33.37
2018-02-05T17:12:54.285Z,29.60
2018-02-05T17:15:21.752Z,30.40
2018-02-05T17:17:49.217Z,29.57
2018-02-05T17:20:16.724Z,29.80
2018-02-05T17:22:44.238Z,30.90
2018-02-05T17:25:11.700Z,33.77
2018-02-05T17:27:39.191Z,31.53
2018-02-05T17:30:06.675Z,35.65
2018-02-05T17:32:34.164Z,33.67
2018-02-05T17:35:01.645Z,26.67
2018-02-05T17:37:29.124Z,27.63
2018-02-05T17:39:56.596Z,27.10
2018-02-05T17:42:24.104Z,30.13
2018-02-05T17:44:51.617Z,25.73
2018-02-05T17:47:19.192Z,23.75
2018-02-05T17:49:46.688Z,26.25
2018-02-05T17:52:14.166Z,32.47
2018-02-05T17:54:41.682Z,27.90
2018-02-05T17:57:09.325Z,26.33
2018-02-05T17:59:36.827Z,23.60
2018-02-05T18:02:04.360Z,24.40
2018-02-05T18:04:31.875Z,26.23
2018-02-05T18:06:59.586Z,23.77
2018-02-05T18:09:27.110Z,26.92
2018-02-05T18:11:54.676Z,23.50
2018-02-05T18:14:22.274Z,22.73
2018-02-05T18:16:49.792Z,26.50
2018-02-05T18:19:17.358Z,26.27
2018-02-05T18:21:44.893Z,25.20
2018-02-05T18:24:12.512Z,22.45
2018-02-05T18:26:40.893Z,25.35
2018-02-05T18:29:09.668Z,22.07
2018-02-05T18:31:37.168Z,22.08
2018-02-05T18:34:04.688Z,27.70
2018-02-05T18:36:32.220Z,23.85
2018-02-05T18:38:59.695Z,23.98
2018-02-05T18:41:27.203Z,23.73
2018-02-05T18:43:54.740Z,26.87
2018-02-05T18:46:22.324Z,27.90
2018-02-05T18:48:49.841Z,23.05
2018-02-05T18:51:17.314Z,26.02
2018-02-05T18:53:44.796Z,23.20
2018-02-05T18:56:12.360Z,22.70
2018-02-05T18:58:39.847Z,26.02
2018-02-05T19:01:07.329Z,27.10
2018-02-05T19:03:34.800Z,26.10
2018-02-05T19:06:02.310Z,22.25
2018-02-05T19:08:29.810Z,23.20
2018-02-05T19:10:57.304Z,18.65
2018-02-05T19:13:24.815Z,20.20
2018-02-05T19:15:52.324Z,21.15
2018-02-05T19:18:19.816Z,23.33
2018-02-05T19:20:47.306Z,23.48
2018-02-05T19:23:14.813Z,23.10
2018-02-05T19:25:42.318Z,22.37
2018-02-05T19:28:09.814Z,23.67
2018-02-05T19:30:37.338Z,22.67
2018-02-05T19:33:04.824Z,27.23
2018-02-05T19:35:32.329Z,25.25
2018-02-05T19:37:59.813Z,23.50
2018-02-05T19:40:27.320Z,22.73
2018-02-05T19:42:54.844Z,29.50
2018-02-05T19:45:22.375Z,21.00
2018-02-05T19:47:49.950Z,24.80
2018-02-05T19:50:17.536Z,23.95
2018-02-05T19:52:52.363Z,25.25
2018-02-05T19:55:19.916Z,22.67
2018-02-05T19:57:47.439Z,23.45
2018-02-05T20:00:14.936Z,28.40
2018-02-05T20:02:42.439Z,25.15
2018-02-05T20:05:09.967Z,23.87
2018-02-05T20:07:37.475Z,25.27
2018-02-05T20:10:04.994Z,20.80
2018-02-05T20:12:32.485Z,23.35
2018-02-05T20:15:00.045Z,23.50
2018-02-05T20:17:27.585Z,19.65
2018-02-05T20:19:55.104Z,24.33
2018-02-05T20:22:22.610Z,24.85
2018-02-05T20:24:50.107Z,24.58
2018-02-05T20:27:17.575Z,22.80
2018-02-05T20:29:45.073Z,25.85
2018-02-05T20:32:12.640Z,23.05
2018-02-05T20:34:40.119Z,29.42
2018-02-05T20:37:07.618Z,24.27
2018-02-05T20:39:35.089Z,28.00
2018-02-05T20:42:02.610Z,22.40
2018-02-05T20:44:30.119Z,21.48
2018-02-05T20:46:57.619Z,21.52
2018-02-05T20:49:25.121Z,22.48
2018-02-05T20:51:52.636Z,27.10
2018-02-05T20:54:20.178Z,23.83
2018-02-05T20:56:47.687Z,21.85
2018-02-05T20:59:15.245Z,22.42
2018-02-05T21:01:42.720Z,22.33
2018-02-05T21:04:10.204Z,19.12
2018-02-05T21:06:37.702Z,26.20
2018-02-05T21:09:05.238Z,25.95
2018-02-05T21:11:32.712Z,19.62
2018-02-05T21:14:00.203Z,21.25
2018-02-05T21:16:27.692Z,23.20
2018-02-05T21:18:55.190Z,23.45
2018-02-05T21:21:22.679Z,21.30
2018-02-05T21:23:50.152Z,18.77
2018-02-05T21:26:17.685Z,22.67
2018-02-05T21:28:45.177Z,21.80
2018-02-05T21:31:12.662Z,21.42
2018-02-05T21:33:40.132Z,20.37
2018-02-05T21:36:07.620Z,18.85
2018-02-05T21:38:35.128Z,19.33
2018-02-05T21:41:02.664Z,17.65
2018-02-05T21:43:30.183Z,19.15
2018-02-05T21:45:57.678Z,16.40
2018-02-05T21:48:25.153Z,18.77
2018-02-05T21:50:52.633Z,17.40
2018-02-05T21:53:20.116Z,18.55
2018-02-05T21:55:47.654Z,17.42
2018-02-05T21:58:15.166Z,18.83
2018-02-05T22:00:42.658Z,22.37
2018-02-05T22:03:10.187Z,19.02
2018-02-05T22:05:37.639Z,20.60
2018-02-05T22:08:05.167Z,20.27
2018-02-05T22:10:32.657Z,21.37
2018-02-05T22:13:01.161Z,19.08
2018-02-05T22:15:28.672Z,24.35
2018-02-05T22:17:56.167Z,23.08
2018-02-05T22:20:23.679Z,15.40
2018-02-05T22:22:51.169Z,23.65
2018-02-05T22:25:18.647Z,21.90
2018-02-05T22:27:46.147Z,20.17
2018-02-05T22:30:13.611Z,21.87
2018-02-05T22:32:41.130Z,17.30
2018-02-05T22:35:08.603Z,18.90
2018-02-05T22:37:36.106Z,18.70
2018-02-05T22:40:03.587Z,23.87
2018-02-05T22:42:31.056Z,20.02
2018-02-05T22:44:58.531Z,18.27
2018-02-05T22:47:26.020Z,19.48
2018-02-05T22:49:53.522Z,17.75
2018-02-05T22:52:21.009Z,20.98
2018-02-05T22:54:48.531Z,23.12
2018-02-05T22:57:16.031Z,21.77
2018-02-05T22:59:43.500Z,21.40
2018-02-05T23:02:11.099Z,23.75
2018-02-05T23:04:38.572Z,22.27
2018-02-05T23:07:06.067Z,22.62
2018-02-05T23:09:33.572Z,21.55
2018-02-05T23:12:01.130Z,22.70
2018-02-05T23:14:28.622Z,23.17
2018-02-05T23:16:56.147Z,23.45
2018-02-05T23:19:23.662Z,24.45
2018-02-05T23:21:51.176Z,19.02
2018-02-05T23:24:18.652Z,25.70
2018-02-05T23:26:46.138Z,22.23
2018-02-05T23:29:13.626Z,22.60
2018-02-05T23:31:41.117Z,20.80
2018-02-05T23:34:08.658Z,18.95
2018-02-05T23:36:36.121Z,17.85
2018-02-05T23:39:03.631Z,18.23
2018-02-05T23:41:31.128Z,20.52
2018-02-05T23:43:58.602Z,18.33
2018-02-05T23:46:26.074Z,19.90
2018-02-05T23:48:53.663Z,20.52
2018-02-05T23:51:21.126Z,19.05
2018-02-05T23:53:48.615Z,21.25
2018-02-05T23:56:16.080Z,19.83
2018-02-05T23:58:43.547Z,20.08
